createdAt,value
2018-12-18T00:00:00.930Z,22.82
2018-12-18T00:02:29.191Z,24.50
2018-12-18T00:04:57.369Z,22.43
2018-12-18T00:07:25.550Z,22.97
2018-12-18T00:09:54.295Z,22.05
2018-12-18T00:12:22.473Z,22.45
2018-12-18T00:14:50.664Z,22.93
2018-12-18T00:17:18.836Z,22.55
2018-12-18T00:19:47.013Z,22.50
2018-12-18T00:22:15.208Z,23.57
2018-12-18T00:24:43.381Z,23.20
2018-12-18T00:27:11.549Z,24.37
2018-12-18T00:29:39.761Z,22.42
2018-12-18T00:32:07.928Z,23.98
2018-12-18T00:34:36.105Z,23.65
2018-12-18T00:37:04.378Z,22.35
2018-12-18T00:39:32.565Z,22.65
2018-12-18T00:42:02.275Z,21.48
2018-12-18T00:44:30.440Z,22.45
2018-12-18T00:46:58.621Z,22.73
2018-12-18T00:49:26.792Z,22.60
2018-12-18T00:51:54.985Z,22.65
2018-12-18T00:54:23.290Z,23.27
2018-12-18T00:56:51.473Z,23.83
2018-12-18T00:59:19.644Z,24.00
2018-12-18T01:01:53.112Z,23.90
2018-12-18T01:04:21.276Z,23.73
2018-12-18T01:06:49.576Z,23.67
2018-12-18T01:09:17.728Z,23.27
2018-12-18T01:11:45.942Z,23.22
2018-12-18T01:14:14.153Z,20.92
2018-12-18T01:16:42.339Z,23.10
2018-12-18T01:19:10.588Z,22.37
2018-12-18T01:21:38.858Z,23.73
2018-12-18T01:24:07.032Z,23.05
2018-12-18T01:26:35.369Z,22.17
2018-12-18T01:29:03.613Z,22.55
2018-12-18T01:31:31.875Z,23.65
2018-12-18T01:34:00.060Z,22.40
2018-12-18T01:36:28.236Z,22.45
2018-12-18T01:38:56.457Z,20.90
2018-12-18T01:41:24.729Z,23.10
2018-12-18T01:43:52.977Z,22.55
2018-12-18T01:46:21.148Z,22.05
2018-12-18T01:48:49.324Z,22.77
2018-12-18T01:51:17.497Z,22.32
2018-12-18T01:53:45.654Z,22.13
2018-12-18T01:56:13.993Z,22.02
2018-12-18T01:58:42.173Z,22.20
2018-12-18T02:01:10.348Z,21.37
2018-12-18T02:03:38.504Z,22.15
2018-12-18T02:06:06.673Z,22.75
2018-12-18T02:08:34.837Z,20.72
2018-12-18T02:11:03.008Z,21.00
2018-12-18T02:13:31.201Z,21.95
2018-12-18T02:15:59.384Z,20.48
2018-12-18T02:18:27.560Z,21.25
2018-12-18T02:20:55.808Z,19.92
2018-12-18T02:23:23.984Z,19.65
2018-12-18T02:25:52.155Z,20.60
2018-12-18T02:28:20.340Z,19.25
2018-12-18T02:30:48.523Z,20.77
2018-12-18T02:33:16.723Z,19.65
2018-12-18T02:35:44.984Z,21.57
2018-12-18T02:38:13.181Z,20.27
2018-12-18T02:40:41.347Z,20.30
2018-12-18T02:43:09.520Z,19.80
2018-12-18T02:45:37.671Z,19.50
2018-12-18T02:48:05.940Z,19.70
2018-12-18T02:50:34.099Z,19.73
2018-12-18T02:53:02.265Z,18.98
2018-12-18T02:55:30.573Z,19.98
2018-12-18T02:57:58.743Z,21.53
2018-12-18T03:00:26.911Z,18.57
2018-12-18T03:02:55.097Z,19.30
2018-12-18T03:05:23.332Z,19.57
2018-12-18T03:07:51.534Z,18.77
2018-12-18T03:10:19.854Z,18.90
2018-12-18T03:12:48.025Z,17.85
2018-12-18T03:15:16.207Z,16.70
2018-12-18T03:17:44.385Z,17.25
2018-12-18T03:20:12.641Z,16.80
2018-12-18T03:22:40.831Z,18.48
2018-12-18T03:25:09.007Z,19.05
2018-12-18T03:27:37.211Z,19.87
2018-12-18T03:30:05.836Z,18.35
2018-12-18T03:32:39.079Z,17.10
2018-12-18T03:35:07.433Z,17.20
2018-12-18T03:37:35.622Z,16.97
2018-12-18T03:40:05.730Z,16.15
2018-12-18T03:42:33.908Z,16.45
2018-12-18T03:45:02.083Z,17.32
2018-12-18T03:47:30.445Z,16.37
2018-12-18T03:49:58.623Z,15.60
2018-12-18T03:52:26.812Z,17.15
2018-12-18T03:54:54.994Z,16.70
2018-12-18T03:57:23.164Z,17.30
2018-12-18T03:59:51.319Z,15.50
2018-12-18T04:02:19.575Z,18.00
2018-12-18T04:04:47.741Z,15.88
2018-12-18T04:07:15.913Z,14.25
2018-12-18T04:09:44.197Z,16.03
2018-12-18T04:12:16.699Z,15.15
2018-12-18T04:14:44.875Z,15.18
2018-12-18T04:17:13.065Z,15.18
2018-12-18T04:19:41.257Z,14.68
2018-12-18T04:22:09.448Z,15.00
2018-12-18T04:24:37.717Z,14.80
2018-12-18T04:27:05.885Z,15.10
2018-12-18T04:29:34.047Z,15.08
2018-12-18T04:32:02.223Z,15.90
2018-12-18T04:34:30.599Z,15.80
2018-12-18T04:36:58.771Z,16.25
2018-12-18T04:39:26.953Z,15.95
2018-12-18T04:41:55.112Z,15.43
2018-12-18T04:44:23.283Z,16.62
2018-12-18T04:46:51.437Z,17.80
2018-12-18T04:49:19.704Z,18.23
2018-12-18T04:51:47.876Z,16.52
2018-12-18T04:54:16.148Z,16.73
2018-12-18T04:56:44.398Z,15.88
2018-12-18T04:59:12.589Z,16.73
2018-12-18T05:01:40.742Z,18.62
2018-12-18T05:04:08.916Z,18.57
2018-12-18T05:06:37.692Z,18.53
2018-12-18T05:09:08.665Z,18.20
2018-12-18T05:11:36.827Z,15.90
2018-12-18T05:14:05.175Z,13.50
2018-12-18T05:16:33.423Z,12.37
2018-12-18T05:19:01.581Z,13.60
2018-12-18T05:21:29.736Z,15.93
2018-12-18T05:23:57.964Z,13.90
2018-12-18T05:26:26.287Z,16.27
2018-12-18T05:28:54.457Z,15.97
2018-12-18T05:31:22.657Z,17.93
2018-12-18T05:33:50.819Z,22.60
2018-12-18T05:36:18.983Z,19.30
2018-12-18T05:38:47.143Z,14.07
2018-12-18T05:41:15.303Z,16.20
2018-12-18T05:43:43.473Z,19.60
2018-12-18T05:46:11.619Z,16.60
2018-12-18T05:48:39.875Z,15.67
2018-12-18T05:51:08.023Z,14.73
2018-12-18T05:53:36.189Z,23.00
2018-12-18T05:56:04.511Z,20.90
2018-12-18T05:58:32.678Z,18.90
2018-12-18T06:01:00.848Z,16.27
2018-12-18T06:03:29.080Z,15.93
2018-12-18T06:05:57.351Z,14.80
2018-12-18T06:08:25.514Z,14.13
2018-12-18T06:10:53.671Z,13.47
2018-12-18T06:13:21.844Z,15.57
2018-12-18T06:15:50.011Z,14.10
2018-12-18T06:18:18.180Z,15.37
2018-12-18T06:20:46.331Z,14.77
2018-12-18T06:23:14.491Z,14.30
2018-12-18T06:25:42.648Z,12.00
2018-12-18T06:28:10.819Z,15.40
2018-12-18T06:30:38.995Z,14.60
2018-12-18T06:33:07.177Z,14.07
2018-12-18T06:35:35.323Z,13.57
2018-12-18T06:38:03.512Z,14.43
2018-12-18T06:40:31.733Z,13.53
2018-12-18T06:42:59.904Z,14.07
2018-12-18T06:45:28.144Z,15.80
2018-12-18T06:47:56.399Z,15.07
2018-12-18T06:50:24.568Z,13.80
2018-12-18T06:52:52.752Z,18.03
2018-12-18T06:55:20.940Z,13.70
2018-12-18T06:57:49.087Z,15.03
2018-12-18T07:00:17.335Z,14.57
2018-12-18T07:02:45.585Z,14.17
2018-12-18T07:05:16.764Z,15.60
2018-12-18T07:07:43.943Z,14.10
2018-12-18T07:10:12.195Z,15.03
2018-12-18T07:12:40.355Z,16.50
2018-12-18T07:15:08.632Z,14.70
2018-12-18T07:17:36.795Z,14.93
2018-12-18T07:20:05.237Z,15.63
2018-12-18T07:22:33.776Z,14.20
2018-12-18T07:25:01.942Z,13.80
2018-12-18T07:27:30.097Z,14.93
2018-12-18T07:29:58.301Z,18.93
2018-12-18T07:32:26.471Z,19.77
2018-12-18T07:34:54.665Z,15.20
2018-12-18T07:37:22.841Z,13.20
2018-12-18T07:39:51.009Z,14.00
2018-12-18T07:42:19.202Z,11.97
2018-12-18T07:44:47.464Z,12.30
2018-12-18T07:47:15.632Z,12.30
2018-12-18T07:49:43.791Z,12.30
2018-12-18T07:52:11.958Z,11.93
2018-12-18T07:54:40.140Z,12.03
2018-12-18T07:57:08.324Z,12.17
2018-12-18T07:59:36.487Z,12.93
2018-12-18T08:02:04.835Z,12.43
2018-12-18T08:04:33.003Z,13.30
2018-12-18T08:07:01.182Z,11.43
2018-12-18T08:09:29.495Z,12.43
2018-12-18T08:11:57.664Z,11.13
2018-12-18T08:14:25.844Z,12.07
2018-12-18T08:16:54.015Z,10.10
2018-12-18T08:19:22.200Z,14.47
2018-12-18T08:21:50.458Z,13.47
2018-12-18T08:24:18.676Z,15.70
2018-12-18T08:26:46.859Z,15.07
2018-12-18T08:29:15.032Z,14.67
2018-12-18T08:31:43.280Z,15.00
2018-12-18T08:34:11.453Z,16.60
2018-12-18T08:36:39.638Z,17.33
2018-12-18T08:39:09.368Z,17.03
2018-12-18T08:41:37.541Z,16.60
2018-12-18T08:44:05.804Z,15.70
2018-12-18T08:46:33.973Z,16.03
2018-12-18T08:49:02.141Z,17.70
2018-12-18T08:51:30.399Z,17.27
2018-12-18T08:53:58.592Z,16.00
2018-12-18T08:56:26.767Z,16.33
2018-12-18T08:58:54.942Z,18.17
2018-12-18T09:01:23.120Z,26.57
2018-12-18T09:03:51.353Z,21.33
2018-12-18T09:06:19.663Z,17.30
2018-12-18T09:08:48.828Z,17.93
2018-12-18T09:11:17.045Z,16.80
2018-12-18T09:13:45.283Z,15.43
2018-12-18T09:16:18.873Z,15.70
2018-12-18T09:18:47.067Z,15.30
2018-12-18T09:21:15.307Z,11.53
2018-12-18T09:23:43.483Z,14.03
2018-12-18T09:26:11.655Z,13.00
2018-12-18T09:28:39.912Z,12.60
2018-12-18T09:31:08.063Z,10.60
2018-12-18T09:33:36.227Z,13.00
2018-12-18T09:36:04.644Z,12.73
2018-12-18T09:38:38.239Z,13.10
2018-12-18T09:41:11.971Z,14.00
2018-12-18T09:43:45.523Z,13.43
2018-12-18T09:46:13.686Z,13.33
2018-12-18T09:48:41.852Z,14.53
2018-12-18T09:51:10.031Z,14.50
2018-12-18T09:53:38.216Z,15.20
2018-12-18T09:56:06.475Z,11.00
2018-12-18T09:58:34.853Z,9.50
2018-12-18T10:01:03.040Z,7.20
2018-12-18T10:03:33.609Z,7.13
2018-12-18T10:06:01.428Z,6.50
2018-12-18T10:08:29.664Z,6.10
2018-12-18T10:10:57.831Z,7.17
2018-12-18T10:13:26.170Z,7.43
2018-12-18T10:15:54.335Z,6.93
2018-12-18T10:18:22.511Z,6.30
2018-12-18T10:20:50.672Z,6.70
2018-12-18T10:23:18.844Z,7.60
2018-12-18T10:25:47.012Z,6.77
2018-12-18T10:28:15.176Z,7.17
2018-12-18T10:30:43.339Z,5.83
2018-12-18T10:33:11.536Z,6.20
2018-12-18T10:35:39.745Z,6.00
2018-12-18T10:38:08.013Z,5.30
2018-12-18T10:40:36.297Z,6.62
2018-12-18T10:43:04.562Z,6.67
2018-12-18T10:45:33.915Z,7.10
2018-12-18T10:48:02.084Z,6.40
2018-12-18T10:50:30.268Z,5.80
2018-12-18T10:52:58.451Z,4.97
2018-12-18T10:55:26.739Z,4.25
2018-12-18T10:57:54.955Z,4.15
2018-12-18T11:00:28.589Z,4.28
2018-12-18T11:02:56.782Z,3.80
2018-12-18T11:05:25.035Z,5.08
2018-12-18T11:07:53.195Z,4.08
2018-12-18T11:10:21.368Z,4.78
2018-12-18T11:12:55.019Z,5.10
2018-12-18T11:15:23.335Z,4.70
2018-12-18T11:17:51.503Z,5.00
2018-12-18T11:20:19.667Z,5.10
2018-12-18T11:22:47.836Z,5.40
2018-12-18T11:25:16.024Z,6.00
2018-12-18T11:27:44.201Z,6.20
2018-12-18T11:30:12.355Z,6.37
2018-12-18T11:32:40.527Z,5.97
2018-12-18T11:35:08.788Z,6.03
2018-12-18T11:37:37.046Z,7.30
2018-12-18T11:40:05.799Z,7.78
2018-12-18T11:42:33.978Z,7.80
2018-12-18T11:45:02.229Z,7.03
2018-12-18T11:47:30.413Z,7.17
2018-12-18T11:49:58.584Z,6.87
2018-12-18T11:52:26.768Z,6.50
2018-12-18T11:54:55.028Z,6.93
2018-12-18T11:57:23.204Z,5.80
2018-12-18T11:59:51.371Z,6.30
2018-12-18T12:02:19.535Z,5.92
2018-12-18T12:04:47.700Z,5.47
2018-12-18T12:07:15.880Z,4.90
2018-12-18T12:09:44.039Z,5.00
2018-12-18T12:12:12.260Z,6.00
2018-12-18T12:14:41.099Z,4.43
2018-12-18T12:17:09.260Z,6.00
2018-12-18T12:19:37.428Z,5.80
2018-12-18T12:22:05.597Z,5.10
2018-12-18T12:24:33.748Z,5.00
2018-12-18T12:27:07.399Z,5.07
2018-12-18T12:29:35.568Z,4.73
2018-12-18T12:32:03.908Z,4.23
2018-12-18T12:34:32.069Z,4.17
2018-12-18T12:37:00.271Z,4.33
2018-12-18T12:39:28.429Z,3.13
2018-12-18T12:41:56.604Z,4.10
2018-12-18T12:44:24.787Z,3.10
2018-12-18T12:46:52.953Z,3.90
2018-12-18T12:49:25.365Z,3.60
2018-12-18T12:51:53.568Z,3.53
2018-12-18T12:54:21.751Z,4.13
2018-12-18T12:56:49.957Z,2.70
2018-12-18T12:59:18.117Z,3.23
2018-12-18T13:01:46.280Z,2.77
2018-12-18T13:04:14.504Z,3.70
2018-12-18T13:06:42.770Z,3.07
2018-12-18T13:09:11.015Z,3.20
2018-12-18T13:11:39.266Z,5.60
2018-12-18T13:14:07.444Z,3.43
2018-12-18T13:16:35.603Z,2.77
2018-12-18T13:19:03.957Z,1.97
2018-12-18T13:21:32.264Z,2.00
2018-12-18T13:24:00.516Z,2.30
2018-12-18T13:26:28.671Z,2.40
2018-12-18T13:28:56.829Z,2.10
2018-12-18T13:31:25.072Z,1.83
2018-12-18T13:33:53.310Z,2.40
2018-12-18T13:36:21.490Z,2.47
2018-12-18T13:38:49.737Z,2.40
2018-12-18T13:41:17.896Z,3.00
2018-12-18T13:43:46.073Z,2.80
2018-12-18T13:46:15.191Z,2.73
2018-12-18T13:48:43.596Z,2.90
2018-12-18T13:51:11.830Z,2.60
2018-12-18T14:23:09.848Z,4.10
2018-12-18T14:25:38.036Z,3.37
2018-12-18T14:28:06.300Z,4.00
2018-12-18T14:30:34.474Z,3.90
2018-12-18T14:33:02.679Z,4.23
2018-12-18T14:35:30.827Z,4.10
2018-12-18T14:37:58.992Z,4.13
2018-12-18T14:40:27.171Z,4.10
2018-12-18T14:42:55.340Z,4.60
2018-12-18T14:45:23.592Z,4.20
2018-12-18T14:47:51.767Z,4.33
2018-12-18T14:50:19.928Z,4.80
2018-12-18T14:52:48.091Z,4.90
2018-12-18T14:55:16.247Z,5.13
2018-12-18T14:57:44.419Z,4.70
2018-12-18T15:00:12.657Z,5.23
2018-12-18T15:02:40.836Z,5.60
2018-12-18T15:05:09.083Z,4.80
2018-12-18T15:07:37.247Z,4.67
2018-12-18T15:10:07.164Z,4.20
2018-12-18T15:12:37.312Z,5.07
2018-12-18T15:15:05.865Z,5.50
2018-12-18T15:17:34.101Z,5.47
2018-12-18T15:20:02.235Z,5.10
2018-12-18T15:22:30.452Z,5.50
2018-12-18T15:24:58.616Z,5.87
2018-12-18T15:27:26.767Z,5.13
2018-12-18T15:29:54.932Z,5.70
2018-12-18T15:32:23.327Z,5.80
2018-12-18T15:34:51.504Z,6.10
2018-12-18T15:37:19.658Z,6.40
2018-12-18T15:39:47.884Z,6.63
2018-12-18T15:42:16.048Z,5.83
2018-12-18T15:44:44.211Z,6.93
2018-12-18T15:47:12.375Z,6.00
2018-12-18T15:49:40.571Z,6.80
2018-12-18T15:52:08.711Z,7.05
2018-12-18T15:54:36.876Z,6.23
2018-12-18T15:57:05.036Z,8.60
2018-12-18T15:59:33.195Z,7.77
2018-12-18T16:02:01.364Z,9.27
2018-12-18T16:04:29.624Z,9.50
2018-12-18T16:06:57.780Z,8.93
2018-12-18T16:09:25.964Z,9.07
2018-12-18T16:11:55.097Z,9.03
2018-12-18T16:14:23.496Z,9.47
2018-12-18T16:16:51.659Z,11.10
2018-12-18T16:19:20.104Z,8.20
2018-12-18T16:21:48.444Z,10.60
2018-12-18T16:24:16.612Z,10.40
2018-12-18T16:26:44.771Z,10.50
2018-12-18T16:29:12.943Z,11.40
2018-12-18T16:31:41.108Z,14.93
2018-12-18T16:34:09.284Z,13.63
2018-12-18T16:36:37.476Z,11.53
2018-12-18T16:39:07.355Z,13.40
2018-12-18T16:41:35.524Z,12.50
2018-12-18T16:44:03.783Z,11.90
2018-12-18T16:46:31.957Z,11.53
2018-12-18T16:49:00.119Z,14.03
2018-12-18T16:51:28.291Z,12.03
2018-12-18T16:53:56.460Z,12.53
2018-12-18T16:56:24.620Z,12.37
2018-12-18T16:58:52.792Z,14.03
2018-12-18T17:01:20.958Z,12.80
2018-12-18T17:03:49.115Z,12.20
2018-12-18T17:06:17.276Z,15.67
2018-12-18T17:08:45.445Z,15.63
2018-12-18T17:11:13.684Z,16.73
2018-12-18T17:13:41.851Z,16.30
2018-12-18T17:16:10.020Z,14.17
2018-12-18T17:18:38.189Z,12.13
2018-12-18T17:21:06.403Z,13.27
2018-12-18T17:23:34.624Z,14.97
2018-12-18T17:26:02.783Z,11.30
2018-12-18T17:28:30.955Z,11.00
2018-12-18T17:30:59.115Z,11.77
2018-12-18T17:33:27.272Z,11.20
2018-12-18T17:35:55.712Z,10.97
2018-12-18T17:38:23.875Z,10.10
2018-12-18T17:40:52.244Z,11.20
2018-12-18T17:43:20.975Z,11.40
2018-12-18T17:45:49.152Z,11.43
2018-12-18T17:48:17.325Z,10.40
2018-12-18T17:50:45.501Z,9.93
2018-12-18T17:53:13.663Z,10.90
2018-12-18T17:55:41.881Z,11.20
2018-12-18T17:58:10.057Z,11.23
2018-12-18T18:00:38.312Z,13.37
2018-12-18T18:03:06.476Z,13.33
2018-12-18T18:05:34.661Z,12.40
2018-12-18T18:08:02.918Z,14.73
2018-12-18T18:10:31.085Z,13.80
2018-12-18T18:12:59.258Z,15.53
2018-12-18T18:15:27.444Z,16.17
2018-12-18T18:17:55.616Z,15.43
2018-12-18T18:20:23.955Z,15.57
2018-12-18T18:22:52.238Z,19.77
2018-12-18T18:25:20.540Z,19.20
2018-12-18T18:27:48.706Z,18.37
2018-12-18T18:30:16.964Z,19.67
2018-12-18T18:32:45.155Z,21.77
2018-12-18T18:35:13.332Z,20.90
2018-12-18T18:37:41.489Z,21.77
2018-12-18T18:40:09.740Z,21.50
2018-12-18T18:42:37.899Z,21.10
2018-12-18T18:45:06.312Z,22.50
2018-12-18T18:47:34.485Z,20.10
2018-12-18T18:50:02.734Z,21.33
2018-12-18T18:52:30.903Z,19.57
2018-12-18T18:54:59.067Z,20.97
2018-12-18T18:57:27.230Z,20.03
2018-12-18T18:59:55.407Z,21.03
2018-12-18T19:02:23.662Z,19.20
2018-12-18T19:04:51.832Z,20.90
2018-12-18T19:07:20.083Z,19.73
2018-12-18T19:09:48.256Z,21.30
2018-12-18T19:12:16.434Z,22.20
2018-12-18T19:14:44.616Z,20.13
2018-12-18T19:17:12.863Z,20.97
2018-12-18T19:19:41.203Z,20.00
2018-12-18T19:22:09.364Z,18.83
2018-12-18T19:24:37.531Z,19.53
2018-12-18T19:27:05.696Z,19.37
2018-12-18T19:29:33.964Z,18.10
2018-12-18T19:32:02.124Z,20.30
2018-12-18T19:34:30.295Z,19.43
2018-12-18T19:36:58.635Z,20.67
2018-12-18T19:39:27.200Z,19.43
2018-12-18T19:41:55.374Z,20.30
2018-12-18T19:44:23.548Z,20.47
2018-12-18T19:46:51.712Z,19.83
2018-12-18T19:49:19.901Z,19.13
2018-12-18T19:51:48.061Z,18.00
2018-12-18T19:54:16.220Z,19.23
2018-12-18T19:56:44.387Z,20.20
2018-12-18T19:59:12.576Z,20.07
2018-12-18T20:01:40.775Z,20.20
2018-12-18T20:04:08.935Z,20.23
2018-12-18T20:06:37.116Z,19.57
2018-12-18T20:09:07.584Z,20.77
2018-12-18T20:11:35.776Z,19.30
2018-12-18T20:14:04.122Z,21.47
2018-12-18T20:16:32.283Z,19.90
2018-12-18T20:19:00.447Z,18.80
2018-12-18T20:21:28.715Z,21.70
2018-12-18T20:23:56.875Z,21.70
2018-12-18T20:26:25.073Z,19.57
2018-12-18T20:28:53.232Z,20.40
2018-12-18T20:31:21.496Z,22.77
2018-12-18T20:33:49.667Z,19.40
2018-12-18T20:36:18.157Z,20.30
2018-12-18T20:38:46.315Z,19.70
2018-12-18T20:41:14.527Z,19.07
2018-12-18T20:43:42.706Z,19.33
2018-12-18T20:46:10.883Z,25.12
2018-12-18T20:48:39.053Z,25.20
2018-12-18T20:51:07.318Z,23.80
2018-12-18T20:53:35.501Z,23.95
2018-12-18T20:56:03.856Z,24.47
2018-12-18T20:58:32.055Z,22.65
2018-12-18T21:01:00.260Z,22.15
2018-12-18T21:03:28.443Z,22.75
2018-12-18T21:05:56.703Z,22.30
2018-12-18T21:08:24.977Z,22.48
2018-12-18T21:10:53.377Z,22.90
2018-12-18T21:13:28.739Z,23.10
2018-12-18T21:15:57.340Z,22.42
2018-12-18T21:18:25.639Z,22.55
2018-12-18T21:20:54.043Z,22.07
2018-12-18T21:23:22.318Z,23.00
2018-12-18T21:25:50.694Z,23.20
2018-12-18T21:28:19.047Z,23.42
2018-12-18T21:30:47.407Z,21.80
2018-12-18T21:33:15.659Z,22.10
2018-12-18T21:35:43.944Z,20.80
2018-12-18T21:38:12.208Z,19.50
2018-12-18T21:40:40.600Z,19.17
2018-12-18T21:43:08.884Z,19.67
2018-12-18T21:45:37.220Z,19.75
2018-12-18T21:48:05.549Z,19.57
2018-12-18T21:50:33.844Z,21.00
2018-12-18T21:53:02.149Z,20.90
2018-12-18T21:55:30.440Z,20.48
2018-12-18T21:57:58.708Z,20.95
2018-12-18T22:00:26.981Z,22.07
2018-12-18T22:02:55.255Z,21.10
2018-12-18T22:05:23.532Z,20.20
2018-12-18T22:07:51.827Z,20.80
2018-12-18T22:10:20.141Z,22.73
2018-12-18T22:12:48.421Z,22.45
2018-12-18T22:15:16.703Z,22.10
2018-12-18T22:17:45.019Z,21.27
2018-12-18T22:20:13.344Z,21.30
2018-12-18T22:22:41.628Z,21.02
2018-12-18T22:25:09.832Z,21.10
2018-12-18T22:27:38.008Z,21.20
2018-12-18T22:30:08.119Z,19.85
2018-12-18T22:32:36.283Z,21.25
2018-12-18T22:35:04.632Z,20.95
2018-12-18T22:37:32.820Z,20.40
2018-12-18T22:40:01.003Z,19.95
2018-12-18T22:42:29.191Z,20.95
2018-12-18T22:44:57.366Z,20.00
2018-12-18T22:47:25.556Z,20.92
2018-12-18T22:49:53.712Z,21.17
2018-12-18T22:52:21.888Z,19.77
2018-12-18T22:54:50.071Z,22.27
2018-12-18T22:57:18.251Z,20.97
2018-12-18T22:59:46.433Z,21.10
2018-12-18T23:02:15.843Z,20.72
2018-12-18T23:04:44.969Z,21.40
2018-12-18T23:07:13.288Z,21.70
2018-12-18T23:09:41.479Z,20.90
2018-12-18T23:12:09.738Z,22.45
2018-12-18T23:14:37.916Z,27.60
2018-12-18T23:17:06.173Z,22.87
2018-12-18T23:19:34.420Z,22.98
2018-12-18T23:22:02.625Z,21.73
2018-12-18T23:24:30.811Z,22.00
2018-12-18T23:26:59.000Z,25.45
2018-12-18T23:29:27.179Z,23.73
2018-12-18T23:31:55.411Z,19.60
2018-12-18T23:34:23.576Z,16.40
2018-12-18T23:36:51.769Z,19.10
2018-12-18T23:39:19.931Z,16.50
2018-12-18T23:41:48.184Z,18.50
2018-12-18T23:44:16.335Z,16.90
2018-12-18T23:46:44.540Z,17.60
2018-12-18T23:49:12.779Z,17.60
2018-12-18T23:51:40.950Z,17.30
2018-12-18T23:54:09.115Z,18.90
2018-12-18T23:56:37.280Z,15.63
2018-12-18T23:59:05.455Z,19.10
